createdAt,value
2022-08-21T00:02:17.469Z,19.17
2022-08-21T00:05:06.067Z,19.16
2022-08-21T00:07:54.310Z,19.11
2022-08-21T00:10:42.903Z,19.13
2022-08-21T00:13:31.071Z,19.13
2022-08-21T00:16:19.220Z,19.06
2022-08-21T00:19:08.699Z,19.07
2022-08-21T00:21:56.728Z,18.99
2022-08-21T00:24:44.759Z,18.89
2022-08-21T00:27:33.461Z,18.86
2022-08-21T00:30:24.066Z,18.85
2022-08-21T00:33:12.829Z,18.86
2022-08-21T00:36:01.381Z,18.76
2022-08-21T00:38:49.277Z,18.72
2022-08-21T00:41:39.830Z,18.67
2022-08-21T00:44:27.689Z,18.64
2022-08-21T00:47:15.633Z,18.64
2022-08-21T00:50:07.764Z,18.60
2022-08-21T00:53:01.544Z,18.60
2022-08-21T00:55:50.612Z,18.52
2022-08-21T00:58:42.736Z,18.53
2022-08-21T01:01:31.914Z,18.55
2022-08-21T01:04:21.367Z,18.53
2022-08-21T01:07:10.208Z,18.50
2022-08-21T01:09:58.301Z,18.51
2022-08-21T01:12:46.318Z,18.55
2022-08-21T01:15:39.847Z,18.52
2022-08-21T01:18:29.517Z,18.51
2022-08-21T01:21:27.807Z,18.33
2022-08-21T01:24:16.409Z,18.49
2022-08-21T01:27:07.631Z,18.49
2022-08-21T01:30:00.456Z,18.48
2022-08-21T01:32:49.841Z,18.48
2022-08-21T01:35:38.429Z,18.48
2022-08-21T01:38:26.509Z,18.46
2022-08-21T01:41:16.875Z,18.46
2022-08-21T01:44:05.034Z,18.48
2022-08-21T01:46:53.575Z,18.48
2022-08-21T01:49:42.688Z,18.49
2022-08-21T01:52:30.673Z,18.46
2022-08-21T01:55:20.245Z,18.43
2022-08-21T01:58:08.173Z,18.48
2022-08-21T02:00:56.121Z,18.39
2022-08-21T02:03:44.051Z,18.44
2022-08-21T02:06:32.052Z,18.43
2022-08-21T02:09:20.460Z,18.43
2022-08-21T02:12:08.518Z,18.38
2022-08-21T02:14:56.390Z,18.41
2022-08-21T02:17:49.929Z,18.43
2022-08-21T02:20:43.416Z,18.28
2022-08-21T02:23:31.517Z,18.33
2022-08-21T02:26:19.535Z,18.33
2022-08-21T02:29:07.729Z,18.04
2022-08-21T02:31:55.572Z,18.18
2022-08-21T02:34:43.524Z,18.16
2022-08-21T02:37:31.849Z,18.11
2022-08-21T02:40:24.366Z,18.01
2022-08-21T02:43:12.991Z,17.95
2022-08-21T02:46:01.379Z,17.88
2022-08-21T02:48:49.575Z,17.93
2022-08-21T02:51:37.469Z,17.88
2022-08-21T02:54:25.700Z,17.70
2022-08-21T02:57:13.556Z,17.74
2022-08-21T03:00:01.401Z,17.65
2022-08-21T03:02:50.023Z,17.64
2022-08-21T03:05:38.683Z,17.60
2022-08-21T03:08:27.739Z,17.53
2022-08-21T03:11:18.413Z,17.46
2022-08-21T03:14:06.343Z,17.39
2022-08-21T03:16:54.263Z,17.14
2022-08-21T03:19:43.335Z,17.30
2022-08-21T03:22:31.306Z,17.26
2022-08-21T03:25:21.378Z,17.23
2022-08-21T03:28:22.511Z,17.05
2022-08-21T03:31:10.402Z,17.13
2022-08-21T03:33:59.104Z,17.14
2022-08-21T03:36:47.036Z,17.12
2022-08-21T03:39:35.581Z,16.98
2022-08-21T03:42:24.249Z,17.10
2022-08-21T03:45:12.154Z,16.96
2022-08-21T03:48:03.808Z,16.96
2022-08-21T03:50:53.956Z,16.97
2022-08-21T03:53:41.921Z,16.97
2022-08-21T03:56:29.898Z,16.89
2022-08-21T03:59:17.748Z,16.96
2022-08-21T04:02:07.744Z,16.88
2022-08-21T04:04:55.570Z,16.70
2022-08-21T04:07:43.727Z,16.63
2022-08-21T04:10:37.560Z,16.53
2022-08-21T04:13:27.764Z,16.53
2022-08-21T04:16:15.599Z,16.48
2022-08-21T04:19:03.675Z,16.45
2022-08-21T04:21:52.640Z,16.51
2022-08-21T04:24:40.575Z,16.54
2022-08-21T04:27:28.434Z,16.44
2022-08-21T04:30:17.587Z,16.52
2022-08-21T04:33:05.579Z,16.53
2022-08-21T04:35:53.414Z,16.47
2022-08-21T04:38:43.224Z,16.49
2022-08-21T04:41:32.505Z,16.38
2022-08-21T04:44:20.524Z,16.47
2022-08-21T04:47:09.078Z,16.44
2022-08-21T04:49:56.906Z,16.41
2022-08-21T04:52:45.355Z,16.46
2022-08-21T04:55:33.439Z,16.34
2022-08-21T04:58:26.334Z,16.39
2022-08-21T05:01:20.578Z,16.53
2022-08-21T05:04:13.865Z,16.56
2022-08-21T05:07:05.489Z,16.65
2022-08-21T05:09:54.706Z,16.63
2022-08-21T05:12:44.072Z,16.76
2022-08-21T05:15:32.765Z,16.86
2022-08-21T05:18:20.750Z,17.07
2022-08-21T05:21:08.893Z,17.14
2022-08-21T05:23:56.700Z,17.17
2022-08-21T05:26:46.505Z,17.31
2022-08-21T05:29:35.402Z,17.42
2022-08-21T05:32:23.854Z,17.52
2022-08-21T05:35:12.253Z,17.60
2022-08-21T05:38:01.137Z,17.65
2022-08-21T05:40:49.256Z,17.85
2022-08-21T05:43:37.507Z,17.85
2022-08-21T05:46:25.583Z,18.02
2022-08-21T05:49:13.782Z,18.09
2022-08-21T05:52:02.311Z,18.49
2022-08-21T05:54:51.294Z,18.70
2022-08-21T05:57:41.867Z,18.61
2022-08-21T06:00:29.880Z,18.72
2022-08-21T06:03:22.280Z,18.96
2022-08-21T06:06:10.900Z,18.99
2022-08-21T06:08:58.765Z,18.95
2022-08-21T06:11:46.683Z,19.07
2022-08-21T06:14:34.537Z,19.08
2022-08-21T06:17:22.537Z,19.35
2022-08-21T06:20:11.007Z,19.59
2022-08-21T06:22:59.244Z,19.81
2022-08-21T06:25:47.314Z,19.83
2022-08-21T06:28:36.779Z,19.92
2022-08-21T06:31:27.777Z,20.07
2022-08-21T06:34:16.756Z,19.84
2022-08-21T06:37:05.162Z,19.88
2022-08-21T06:39:53.219Z,19.98
2022-08-21T06:42:42.707Z,19.97
2022-08-21T06:45:32.189Z,19.95
2022-08-21T06:48:20.641Z,19.99
2022-08-21T06:51:08.558Z,20.17
2022-08-21T06:53:56.858Z,20.22
2022-08-21T06:56:47.618Z,20.55
2022-08-21T06:59:35.820Z,20.68
2022-08-21T07:02:23.803Z,20.78
2022-08-21T07:05:18.450Z,21.27
2022-08-21T07:08:08.126Z,21.54
2022-08-21T07:11:01.184Z,21.69
2022-08-21T07:13:53.361Z,21.61
2022-08-21T07:16:43.329Z,21.73
2022-08-21T07:19:31.633Z,21.89
2022-08-21T07:22:23.920Z,22.34
2022-08-21T07:25:14.470Z,22.59
2022-08-21T07:28:04.087Z,22.99
2022-08-21T07:30:59.684Z,23.12
2022-08-21T07:33:52.131Z,23.20
2022-08-21T07:36:43.854Z,23.20
2022-08-21T07:39:32.436Z,23.64
2022-08-21T07:42:24.107Z,24.11
2022-08-21T07:45:17.106Z,24.30
2022-08-21T07:48:08.227Z,24.33
2022-08-21T07:51:00.877Z,24.50
2022-08-21T07:53:55.963Z,24.59
2022-08-21T07:56:48.585Z,24.98
2022-08-21T07:59:39.944Z,25.21
2022-08-21T08:02:32.957Z,25.31
2022-08-21T08:05:29.549Z,25.38
2022-08-21T08:08:20.978Z,25.74
2022-08-21T08:11:17.670Z,26.35
2022-08-21T08:14:09.632Z,26.73
2022-08-21T08:17:02.271Z,27.16
2022-08-21T08:19:53.555Z,27.45
2022-08-21T08:22:50.024Z,27.87
2022-08-21T08:25:42.665Z,27.85
2022-08-21T08:28:35.375Z,28.08
2022-08-21T08:31:26.667Z,28.17
2022-08-21T08:34:23.457Z,29.02
2022-08-21T08:37:17.389Z,30.07
2022-08-21T08:40:09.308Z,31.18
2022-08-21T08:43:01.472Z,32.43
2022-08-21T08:45:59.010Z,33.36
2022-08-21T08:49:24.730Z,34.72
2022-08-21T08:52:38.756Z,35.83
2022-08-21T08:55:41.182Z,36.00
2022-08-21T08:58:38.046Z,37.02
2022-08-21T09:01:29.788Z,38.39
2022-08-21T09:04:30.226Z,38.79
2022-08-21T09:07:58.364Z,39.26
2022-08-21T09:11:10.529Z,40.03
2022-08-21T09:14:10.242Z,39.62
2022-08-21T09:17:37.900Z,39.56
2022-08-21T09:21:10.925Z,40.60
2022-08-21T09:24:34.405Z,41.46
2022-08-21T09:27:24.909Z,41.71
2022-08-21T09:30:15.715Z,42.19
2022-08-21T09:33:04.179Z,41.35
2022-08-21T09:35:59.269Z,41.16
2022-08-21T09:38:57.691Z,40.64
2022-08-21T09:41:59.667Z,38.84
2022-08-21T09:45:16.852Z,38.63
2022-08-21T09:48:20.637Z,38.61
2022-08-21T09:51:17.254Z,38.46
2022-08-21T09:54:18.982Z,36.47
2022-08-21T09:57:46.333Z,35.20
2022-08-21T10:00:38.632Z,34.15
2022-08-21T10:03:30.571Z,35.72
2022-08-21T10:06:32.250Z,37.59
2022-08-21T10:09:25.901Z,37.61
2022-08-21T10:12:30.864Z,39.10
2022-08-21T10:15:49.478Z,37.01
2022-08-21T10:19:08.146Z,35.66
2022-08-21T10:22:21.227Z,34.95
2022-08-21T10:25:56.289Z,33.90
2022-08-21T10:29:39.052Z,33.01
2022-08-21T10:33:14.243Z,32.02
2022-08-21T10:36:28.895Z,31.21
2022-08-21T10:39:45.716Z,30.52
2022-08-21T10:43:14.752Z,29.69
2022-08-21T10:46:17.866Z,29.42
2022-08-21T10:49:41.807Z,29.47
2022-08-21T10:53:03.633Z,29.54
2022-08-21T10:56:14.448Z,29.58
2022-08-21T10:59:26.613Z,29.78
2022-08-21T11:02:28.757Z,29.61
2022-08-21T11:05:38.168Z,29.67
2022-08-21T11:08:47.700Z,29.56
2022-08-21T11:11:55.256Z,29.67
2022-08-21T11:15:29.159Z,29.61
2022-08-21T11:18:33.944Z,29.42
2022-08-21T11:21:40.920Z,29.33
2022-08-21T11:24:47.641Z,29.26
2022-08-21T11:28:00.211Z,28.96
2022-08-21T11:31:23.658Z,28.96
2022-08-21T11:34:51.113Z,29.14
2022-08-21T11:37:59.986Z,29.02
2022-08-21T11:41:34.026Z,28.83
2022-08-21T11:44:56.341Z,28.81
2022-08-21T11:48:18.148Z,28.44
2022-08-21T11:51:15.250Z,28.59
2022-08-21T11:54:47.515Z,28.28
2022-08-21T11:58:13.951Z,28.44
2022-08-21T12:01:34.969Z,28.30
2022-08-21T12:04:32.985Z,28.34
2022-08-21T12:07:43.694Z,28.27
2022-08-21T12:10:42.267Z,28.28
2022-08-21T12:13:42.097Z,28.42
2022-08-21T12:16:42.199Z,28.38
2022-08-21T12:19:36.494Z,28.47
2022-08-21T12:22:41.081Z,28.17
2022-08-21T12:26:01.682Z,28.23
2022-08-21T12:29:05.243Z,28.23
2022-08-21T12:32:10.855Z,28.53
2022-08-21T12:35:26.378Z,28.52
2022-08-21T12:38:31.823Z,28.69
2022-08-21T12:42:10.662Z,28.99
2022-08-21T12:45:08.061Z,29.26
2022-08-21T12:48:25.051Z,29.47
2022-08-21T12:51:48.715Z,29.47
2022-08-21T12:54:47.191Z,29.47
2022-08-21T12:57:43.973Z,28.84
2022-08-21T13:00:34.651Z,28.40
2022-08-21T13:03:27.558Z,28.31
2022-08-21T13:06:22.859Z,28.02
2022-08-21T13:09:24.287Z,27.91
2022-08-21T13:12:17.689Z,27.53
2022-08-21T13:15:09.143Z,27.15
2022-08-21T13:18:02.860Z,27.00
2022-08-21T13:21:03.875Z,26.83
2022-08-21T13:23:55.325Z,26.75
2022-08-21T13:26:47.036Z,26.71
2022-08-21T13:29:38.549Z,26.66
2022-08-21T13:32:34.305Z,26.74
2022-08-21T13:35:37.897Z,26.83
2022-08-21T13:38:32.971Z,26.84
2022-08-21T13:41:47.255Z,26.87
2022-08-21T13:44:47.788Z,26.70
2022-08-21T13:47:39.697Z,26.59
2022-08-21T13:50:33.527Z,26.62
2022-08-21T13:53:59.048Z,26.58
2022-08-21T13:56:51.016Z,26.41
2022-08-21T13:59:42.889Z,26.34
2022-08-21T14:02:45.482Z,26.32
2022-08-21T14:05:40.061Z,26.50
2022-08-21T14:08:36.704Z,26.66
2022-08-21T14:11:28.346Z,26.63
2022-08-21T14:14:33.754Z,26.95
2022-08-21T14:17:39.175Z,27.02
2022-08-21T14:20:35.443Z,27.15
2022-08-21T14:23:29.343Z,27.06
2022-08-21T14:26:20.853Z,27.14
2022-08-21T14:29:16.458Z,27.30
2022-08-21T14:32:31.249Z,27.42
2022-08-21T14:35:24.594Z,27.25
2022-08-21T14:38:23.791Z,27.28
2022-08-21T14:41:24.778Z,27.25
2022-08-21T14:44:16.381Z,27.29
2022-08-21T14:47:08.791Z,27.10
2022-08-21T14:50:00.247Z,27.11
2022-08-21T14:52:48.990Z,26.85
2022-08-21T14:56:00.445Z,26.76
2022-08-21T14:58:52.859Z,26.72
2022-08-21T15:01:43.046Z,26.72
2022-08-21T15:04:35.966Z,26.68
2022-08-21T15:07:27.370Z,26.70
2022-08-21T15:10:20.320Z,26.67
2022-08-21T15:13:11.289Z,26.58
2022-08-21T15:16:02.496Z,26.59
2022-08-21T15:18:53.263Z,26.66
2022-08-21T15:21:45.287Z,26.61
2022-08-21T15:24:36.743Z,26.54
2022-08-21T15:27:28.731Z,26.46
2022-08-21T15:30:20.298Z,26.43
2022-08-21T15:33:11.014Z,26.44
2022-08-21T15:36:03.521Z,26.46
2022-08-21T15:38:53.811Z,26.47
2022-08-21T15:41:44.585Z,26.49
2022-08-21T15:44:37.102Z,26.55
2022-08-21T15:47:37.162Z,26.64
2022-08-21T15:50:28.646Z,26.64
2022-08-21T15:53:32.917Z,26.66
2022-08-21T15:56:36.588Z,26.83
2022-08-21T15:59:29.162Z,26.75
2022-08-21T16:02:31.085Z,26.76
2022-08-21T16:05:23.931Z,26.71
2022-08-21T16:08:15.916Z,26.65
2022-08-21T16:11:06.859Z,26.67
2022-08-21T16:14:00.179Z,26.77
2022-08-21T16:16:51.358Z,26.73
2022-08-21T16:19:44.641Z,26.64
2022-08-21T16:22:44.048Z,26.65
2022-08-21T16:25:40.803Z,26.59
2022-08-21T16:28:37.904Z,26.54
2022-08-21T16:31:31.778Z,26.60
2022-08-21T16:34:20.988Z,26.58
2022-08-21T16:37:13.736Z,26.54
2022-08-21T16:40:10.711Z,26.59
2022-08-21T16:43:00.952Z,26.62
2022-08-21T16:45:54.229Z,26.65
2022-08-21T16:48:45.429Z,26.66
2022-08-21T16:51:38.270Z,26.57
2022-08-21T16:54:31.102Z,26.53
2022-08-21T16:57:24.374Z,26.57
2022-08-21T17:00:13.937Z,26.54
2022-08-21T17:03:05.916Z,26.40
2022-08-21T17:05:56.434Z,26.27
2022-08-21T17:08:47.974Z,26.21
2022-08-21T17:11:50.832Z,26.26
2022-08-21T17:14:41.955Z,26.24
2022-08-21T17:17:34.438Z,26.12
2022-08-21T17:20:26.241Z,26.08
2022-08-21T17:23:18.346Z,26.05
2022-08-21T17:26:08.965Z,26.01
2022-08-21T17:29:09.710Z,25.82
2022-08-21T17:32:00.726Z,25.86
2022-08-21T17:34:52.966Z,25.65
2022-08-21T17:37:45.946Z,25.70
2022-08-21T17:40:38.682Z,25.59
2022-08-21T17:43:29.680Z,25.53
2022-08-21T17:46:29.411Z,25.45
2022-08-21T17:49:19.244Z,25.37
2022-08-21T17:52:11.991Z,25.21
2022-08-21T17:55:03.171Z,25.22
2022-08-21T17:57:55.714Z,25.16
2022-08-21T18:00:47.638Z,24.98
2022-08-21T18:03:40.246Z,24.73
2022-08-21T18:06:33.147Z,24.65
2022-08-21T18:09:28.118Z,24.63
2022-08-21T18:12:19.175Z,24.44
2022-08-21T18:15:09.226Z,24.30
2022-08-21T18:18:02.556Z,24.28
2022-08-21T18:20:52.980Z,24.16
2022-08-21T18:23:45.260Z,24.13
2022-08-21T18:26:39.738Z,24.02
2022-08-21T18:29:31.412Z,23.94
2022-08-21T18:32:31.612Z,23.92
2022-08-21T18:35:22.227Z,23.84
2022-08-21T18:38:15.886Z,23.78
2022-08-21T18:41:10.329Z,23.74
2022-08-21T18:44:02.461Z,23.63
2022-08-21T18:47:02.785Z,23.55
2022-08-21T18:49:53.675Z,23.40
2022-08-21T18:52:52.904Z,23.41
2022-08-21T18:55:45.565Z,23.34
2022-08-21T18:58:36.402Z,23.26
2022-08-21T19:01:29.473Z,23.19
2022-08-21T19:04:43.148Z,23.13
2022-08-21T19:07:29.194Z,23.02
2022-08-21T19:10:28.818Z,22.97
2022-08-21T19:13:23.227Z,22.91
2022-08-21T19:16:19.962Z,22.87
2022-08-21T19:19:13.899Z,22.76
2022-08-21T19:22:05.665Z,22.65
2022-08-21T19:24:55.197Z,22.54
2022-08-21T19:27:45.874Z,22.41
2022-08-21T19:30:57.104Z,22.34
2022-08-21T19:34:13.759Z,22.31
2022-08-21T19:37:08.513Z,22.24
2022-08-21T19:39:59.985Z,22.12
2022-08-21T19:42:49.286Z,21.97
2022-08-21T19:45:38.944Z,21.91
2022-08-21T19:48:30.617Z,21.84
2022-08-21T19:51:20.890Z,21.78
2022-08-21T19:54:29.771Z,21.71
2022-08-21T19:57:20.592Z,21.63
2022-08-21T20:00:11.069Z,21.51
2022-08-21T20:02:59.284Z,21.41
2022-08-21T20:05:47.537Z,21.43
2022-08-21T20:08:36.023Z,21.36
2022-08-21T20:11:42.852Z,21.37
2022-08-21T20:14:32.760Z,21.33
2022-08-21T20:17:22.939Z,21.24
2022-08-21T20:20:12.431Z,21.26
2022-08-21T20:23:00.796Z,21.29
2022-08-21T20:26:00.213Z,21.17
2022-08-21T20:28:50.299Z,21.19
2022-08-21T20:31:38.640Z,21.13
2022-08-21T20:34:28.717Z,21.15
2022-08-21T20:40:32.047Z,21.07
2022-08-21T20:43:22.517Z,21.03
2022-08-21T20:46:10.623Z,20.91
2022-08-21T20:48:59.449Z,20.75
2022-08-21T20:51:52.268Z,20.67
2022-08-21T20:54:50.138Z,20.72
2022-08-21T20:58:05.261Z,20.56
2022-08-21T21:00:55.234Z,20.57
2022-08-21T21:03:52.689Z,20.53
2022-08-21T21:06:43.001Z,20.63
2022-08-21T21:09:44.375Z,20.59
2022-08-21T21:12:35.564Z,20.70
2022-08-21T21:15:32.089Z,20.60
2022-08-21T21:18:32.974Z,20.68
2022-08-21T21:21:58.942Z,20.97
2022-08-21T21:25:00.930Z,21.10
2022-08-21T21:28:01.511Z,21.14
2022-08-21T21:30:57.580Z,21.23
2022-08-21T21:33:47.939Z,21.27
2022-08-21T21:36:58.129Z,21.27
2022-08-21T21:39:53.995Z,21.23
2022-08-21T21:43:19.974Z,20.94
2022-08-21T21:46:31.180Z,21.09
2022-08-21T21:53:36.813Z,20.88
2022-08-21T21:56:55.063Z,20.80
2022-08-21T21:59:48.751Z,20.68
2022-08-21T22:03:03.117Z,20.54
2022-08-21T22:06:08.555Z,20.46
2022-08-21T22:09:55.192Z,20.40
2022-08-21T22:13:10.109Z,20.33
2022-08-21T22:15:58.783Z,20.26
2022-08-21T22:19:06.613Z,20.19
2022-08-21T22:22:04.755Z,20.26
2022-08-21T22:25:05.027Z,20.18
2022-08-21T22:28:25.392Z,20.09
2022-08-21T22:31:21.104Z,20.10
2022-08-21T22:34:19.473Z,20.08
2022-08-21T22:37:11.816Z,20.09
2022-08-21T22:39:59.976Z,20.05
2022-08-21T22:43:14.761Z,19.98
2022-08-21T22:46:10.612Z,20.05
2022-08-21T22:49:15.578Z,19.97
2022-08-21T22:52:18.254Z,20.07
2022-08-21T22:55:32.124Z,20.07
2022-08-21T22:58:26.851Z,19.93
2022-08-21T23:01:20.846Z,20.01
2022-08-21T23:04:25.429Z,19.85
2022-08-21T23:07:31.578Z,19.94
2022-08-21T23:10:40.742Z,19.92
2022-08-21T23:13:38.927Z,19.73
2022-08-21T23:16:38.747Z,19.82
2022-08-21T23:20:00.387Z,19.79
2022-08-21T23:23:20.915Z,19.73
2022-08-21T23:26:27.106Z,19.75
2022-08-21T23:29:51.719Z,19.68
2022-08-21T23:33:17.624Z,19.67
2022-08-21T23:36:47.854Z,19.67
2022-08-21T23:39:51.660Z,19.68
2022-08-21T23:43:13.689Z,19.68
2022-08-21T23:46:16.842Z,19.73
2022-08-21T23:49:53.910Z,19.75
2022-08-21T23:52:54.976Z,19.70
2022-08-21T23:55:55.308Z,19.64
2022-08-21T23:59:11.121Z,19.49
